메인 페이지
METAR-TAF:

METAR-TAF

공항 :

푸나푸티 국제공항

푸나푸티, 투발루

위도: 08-31S, 경도: 179-13E, 고도: 1m

현재 날씨관측

예보는 5 시간 5분 전, 00:00시(UTC)에 발표되었습니다.
서북서3kt
온도 31°C
습도 71%
기압 1009 hPa
시정 10km 이상
고도 1800ft 상공 구름 보통, 타워링 적운.
고도 31000ft 상공 구름 많음

METAR: NGFU 150000Z 30003KT 9999 SCT018TCU BKN310 31/25 Q1009

시각: 17:05 (05:05 UTC)

예보

예보는 5 시간 43분 전, 23:22시(UTC)에 발표되었습니다.
예보 대상 시간: 15일 00시부터 15일 24시까지 (UTC)
8kt
시정 10km 이상
고도 1700ft 상공 구름 보통
고도 5000ft 상공 구름 보통
확률 30% :
일시적
15일 03시부터 15일 12시까지 (UTC)
시정: 5000m
고도 1800ft 상공 구름 조금, 적란운.
뇌우, 비

TAF: NGFU 142322Z 1500/1524 35008KT 9999 SCT017 SCT050 PROB30 TEMPO 1503/1512 5000 TSRA FEW018CB

4,000개 이상의 공항 관측 자료 및 예보 (METAR 및 TAF 보고).

지도상에서 검색 가능한 기상관측소가 노란 점과 빨간 점으로 표시되어 있습니다.

기상관측소 명을 보려면 표시 위로 마우스를 이동하세요.

날씨 관측과 예보를 보려면 클릭하세요.

지도 변경 : 확대하려면 엑스 표시가 있는 녹색 버튼, 축소하려면 빼기 표시가 있는 녹색 버튼, 다음 페이지의 지도를 보려면 녹색 화살표를 클릭하세요.


METAR-TAF: